sensor_id;sensor_type;location;lat;lon;timestamp;pressure;altitude;pressure_sealevel;temperature;humidity
60373;BME280;46216;52.220;5.134;2023-08-01T00:00:09;100094.97;;;16.18;100.00
60373;BME280;46216;52.220;5.134;2023-08-01T00:02:34;100092.28;;;16.18;100.00
60373;BME280;46216;52.220;5.134;2023-08-01T00:05:00;100086.06;;;16.17;100.00
60373;BME280;46216;52.220;5.134;2023-08-01T00:07:28;100084.03;;;16.19;100.00
60373;BME280;46216;52.220;5.134;2023-08-01T00:09:54;100084.84;;;16.20;100.00
60373;BME280;46216;52.220;5.134;2023-08-01T00:12:19;100092.28;;;16.18;100.00
60373;BME280;46216;52.220;5.134;2023-08-01T00:14:45;100086.56;;;16.21;100.00
60373;BME280;46216;52.220;5.134;2023-08-01T00:17:10;100081.19;;;16.21;100.00
60373;BME280;46216;52.220;5.134;2023-08-01T00:19:35;100082.84;;;16.22;100.00
60373;BME280;46216;52.220;5.134;2023-08-01T00:22:01;100084.38;;;16.24;100.00
60373;BME280;46216;52.220;5.134;2023-08-01T00:24:26;100085.88;;;16.27;100.00
60373;BME280;46216;52.220;5.134;2023-08-01T00:26:51;100087.56;;;16.28;100.00
60373;BME280;46216;52.220;5.134;2023-08-01T00:29:20;100082.19;;;16.28;100.00
60373;BME280;46216;52.220;5.134;2023-08-01T00:31:45;100074.78;;;16.30;100.00
60373;BME280;46216;52.220;5.134;2023-08-01T00:34:11;100078.84;;;16.34;100.00
60373;BME280;46216;52.220;5.134;2023-08-01T00:36:36;100064.72;;;16.32;100.00
60373;BME280;46216;52.220;5.134;2023-08-01T00:39:01;100067.06;;;16.35;100.00
60373;BME280;46216;52.220;5.134;2023-08-01T00:41:27;100052.94;;;16.33;100.00
60373;BME280;46216;52.220;5.134;2023-08-01T00:43:52;100051.28;;;16.32;100.00
60373;BME280;46216;52.220;5.134;2023-08-01T00:46:18;100047.75;;;16.31;100.00
60373;BME280;46216;52.220;5.134;2023-08-01T00:48:43;100037.16;;;16.30;100.00
60373;BME280;46216;52.220;5.134;2023-08-01T00:51:09;100031.75;;;16.30;100.00
60373;BME280;46216;52.220;5.134;2023-08-01T00:53:35;100030.09;;;16.29;100.00
60373;BME280;46216;52.220;5.134;2023-08-01T00:56:01;100030.94;;;16.29;100.00
60373;BME280;46216;52.220;5.134;2023-08-01T00:58:26;100027.41;;;16.29;100.00
60373;BME280;46216;52.220;5.134;2023-08-01T01:00:52;100024.41;;;16.24;100.00
60373;BME280;46216;52.220;5.134;2023-08-01T01:03:18;100014.63;;;16.23;100.00
60373;BME280;46216;52.220;5.134;2023-08-01T01:05:51;100022.88;;;16.21;100.00
60373;BME280;46216;52.220;5.134;2023-08-01T01:08:17;100017.00;;;16.18;100.00
60373;BME280;46216;52.220;5.134;2023-08-01T01:10:43;100027.56;;;16.19;100.00
60373;BME280;46216;52.220;5.134;2023-08-01T01:13:08;100020.69;;;16.17;100.00
60373;BME280;46216;52.220;5.134;2023-08-01T01:15:34;100023.53;;;16.15;100.00
60373;BME280;46216;52.220;5.134;2023-08-01T01:17:59;100027.25;;;16.14;100.00
60373;BME280;46216;52.220;5.134;2023-08-01T01:20:25;100017.66;;;16.12;100.00
60373;BME280;46216;52.220;5.134;2023-08-01T01:22:52;100023.03;;;16.12;100.00
60373;BME280;46216;52.220;5.134;2023-08-01T01:25:20;100017.31;;;16.06;100.00
60373;BME280;46216;52.220;5.134;2023-08-01T01:27:49;100018.00;;;16.08;100.00
60373;BME280;46216;52.220;5.134;2023-08-01T01:30:17;100014.63;;;16.06;100.00
60373;BME280;46216;52.220;5.134;2023-08-01T01:32:43;100017.31;;;16.06;100.00
60373;BME280;46216;52.220;5.134;2023-08-01T01:35:09;100017.50;;;16.05;100.00
60373;BME280;46216;52.220;5.134;2023-08-01T01:37:35;100015.63;;;16.05;100.00
60373;BME280;46216;52.220;5.134;2023-08-01T01:40:00;100013.28;;;16.02;100.00
60373;BME280;46216;52.220;5.134;2023-08-01T01:42:26;100013.47;;;16.01;100.00
60373;BME280;46216;52.220;5.134;2023-08-01T01:44:51;100011.94;;;15.98;100.00
60373;BME280;46216;52.220;5.134;2023-08-01T01:47:17;100013.63;;;15.99;100.00
60373;BME280;46216;52.220;5.134;2023-08-01T01:49:43;100015.66;;;15.97;100.00
60373;BME280;46216;52.220;5.134;2023-08-01T01:52:08;100007.59;;;15.97;100.00
60373;BME280;46216;52.220;5.134;2023-08-01T01:54:33;100015.66;;;15.97;100.00
60373;BME280;46216;52.220;5.134;2023-08-01T01:56:59;100001.53;;;15.95;100.00
60373;BME280;46216;52.220;5.134;2023-08-01T01:59:24;100003.19;;;15.96;100.00
60373;BME280;46216;52.220;5.134;2023-08-01T02:01:49;99997.16;;;15.94;100.00
60373;BME280;46216;52.220;5.134;2023-08-01T02:04:15;100003.19;;;15.96;100.00
60373;BME280;46216;52.220;5.134;2023-08-01T02:06:40;100000.50;;;15.96;100.00
60373;BME280;46216;52.220;5.134;2023-08-01T02:09:06;99994.47;;;15.94;100.00
60373;BME280;46216;52.220;5.134;2023-08-01T02:11:32;99996.16;;;15.95;100.00
60373;BME280;46216;52.220;5.134;2023-08-01T02:13:57;100005.06;;;15.96;100.00
60373;BME280;46216;52.220;5.134;2023-08-01T02:16:22;100005.72;;;15.98;100.00
60373;BME280;46216;52.220;5.134;2023-08-01T02:18:48;100002.88;;;15.99;100.00
60373;BME280;46216;52.220;5.134;2023-08-01T02:21:13;100003.56;;;16.01;100.00
60373;BME280;46216;52.220;5.134;2023-08-01T02:23:38;100006.91;;;16.03;100.00
60373;BME280;46216;52.220;5.134;2023-08-01T02:26:04;100014.13;;;16.03;100.00
60373;BME280;46216;52.220;5.134;2023-08-01T02:28:29;100002.53;;;16.02;100.00
60373;BME280;46216;52.220;5.134;2023-08-01T02:30:55;100002.53;;;16.02;100.00
60373;BME280;46216;52.220;5.134;2023-08-01T02:33:20;100002.53;;;16.02;100.00
60373;BME280;46216;52.220;5.134;2023-08-01T02:35:46;99995.81;;;15.98;100.00
60373;BME280;46216;52.220;5.134;2023-08-01T02:38:12;100001.38;;;15.97;100.00
60373;BME280;46216;52.220;5.134;2023-08-01T02:40:37;99993.78;;;15.92;100.00
60373;BME280;46216;52.220;5.134;2023-08-01T02:43:03;99995.97;;;15.89;100.00
60373;BME280;46216;52.220;5.134;2023-08-01T02:45:28;99998.66;;;15.89;100.00
60373;BME280;46216;52.220;5.134;2023-08-01T02:47:53;99997.13;;;15.86;100.00
60373;BME280;46216;52.220;5.134;2023-08-01T02:50:19;100006.22;;;15.85;100.00
60373;BME280;46216;52.220;5.134;2023-08-01T02:52:44;100004.53;;;15.84;100.00
60373;BME280;46216;52.220;5.134;2023-08-01T02:55:10;99992.13;;;15.83;100.00
60373;BME280;46216;52.220;5.134;2023-08-01T02:57:36;99992.13;;;15.83;100.00
60373;BME280;46216;52.220;5.134;2023-08-01T03:00:01;99990.44;;;15.82;100.00
60373;BME280;46216;52.220;5.134;2023-08-01T03:02:30;100000.00;;;15.84;100.00
60373;BME280;46216;52.220;5.134;2023-08-01T03:04:56;99985.75;;;15.84;100.00
60373;BME280;46216;52.220;5.134;2023-08-01T03:07:21;99987.41;;;15.85;100.00
60373;BME280;46216;52.220;5.134;2023-08-01T03:09:47;99986.41;;;15.86;100.00
60373;BME280;46216;52.220;5.134;2023-08-01T03:12:12;99982.53;;;15.89;100.00
60373;BME280;46216;52.220;5.134;2023-08-01T03:14:38;99993.28;;;15.89;100.00
60373;BME280;46216;52.220;5.134;2023-08-01T03:17:03;99992.63;;;15.87;100.00
60373;BME280;46216;52.220;5.134;2023-08-01T03:19:28;99995.13;;;15.88;100.00
60373;BME280;46216;52.220;5.134;2023-08-01T03:21:55;99998.84;;;15.87;100.00
60373;BME280;46216;52.220;5.134;2023-08-01T03:24:20;100000.50;;;15.88;100.00
60373;BME280;46216;52.220;5.134;2023-08-01T03:26:45;99999.69;;;15.88;100.00
60373;BME280;46216;52.220;5.134;2023-08-01T03:29:11;99998.66;;;15.89;100.00
60373;BME280;46216;52.220;5.134;2023-08-01T03:31:36;99996.81;;;15.89;100.00
60373;BME280;46216;52.220;5.134;2023-08-01T03:34:02;99993.97;;;15.91;100.00
60373;BME280;46216;52.220;5.134;2023-08-01T03:36:28;99989.63;;;15.90;100.00
60373;BME280;46216;52.220;5.134;2023-08-01T03:38:53;99986.06;;;15.89;100.00
60373;BME280;46216;52.220;5.134;2023-08-01T03:41:18;99991.09;;;15.92;100.00
60373;BME280;46216;52.220;5.134;2023-08-01T03:43:44;99985.22;;;15.89;100.00
60373;BME280;46216;52.220;5.134;2023-08-01T03:46:10;99983.22;;;15.91;100.00
60373;BME280;46216;52.220;5.134;2023-08-01T03:48:36;99995.81;;;15.90;100.00
60373;BME280;46216;52.220;5.134;2023-08-01T03:51:01;100003.72;;;15.92;100.00
60373;BME280;46216;52.220;5.134;2023-08-01T03:53:29;99997.31;;;15.93;100.00
60373;BME280;46216;52.220;5.134;2023-08-01T03:55:54;99994.47;;;15.94;100.00
60373;BME280;46216;52.220;5.134;2023-08-01T03:58:19;99995.13;;;15.96;100.00
60373;BME280;46216;52.220;5.134;2023-08-01T04:00:45;100004.56;;;16.00;100.00
60373;BME280;46216;52.220;5.134;2023-08-01T04:03:10;100000.88;;;16.01;100.00
60373;BME280;46216;52.220;5.134;2023-08-01T04:05:36;99998.84;;;16.03;100.00
60373;BME280;46216;52.220;5.134;2023-08-01T04:08:01;99998.69;;;16.05;100.00
60373;BME280;46216;52.220;5.134;2023-08-01T04:10:27;100001.88;;;16.08;100.00
60373;BME280;46216;52.220;5.134;2023-08-01T04:12:52;99996.34;;;16.10;100.00
60373;BME280;46216;52.220;5.134;2023-08-01T04:15:18;100002.22;;;16.14;100.00
60373;BME280;46216;52.220;5.134;2023-08-01T04:17:43;99998.53;;;16.15;100.00
60373;BME280;46216;52.220;5.134;2023-08-01T04:20:09;99993.78;;;16.17;100.00
60373;BME280;46216;52.220;5.134;2023-08-01T04:22:34;99993.78;;;16.17;100.00
60373;BME280;46216;52.220;5.134;2023-08-01T04:25:01;100000.88;;;16.18;100.00
60373;BME280;46216;52.220;5.134;2023-08-01T04:27:27;100002.53;;;16.19;100.00
60373;BME280;46216;52.220;5.134;2023-08-01T04:29:52;99992.47;;;16.21;100.00
60373;BME280;46216;52.220;5.134;2023-08-01T04:32:19;99993.13;;;16.23;100.00
60373;BME280;46216;52.220;5.134;2023-08-01T04:34:44;99997.50;;;16.24;100.00
60373;BME280;46216;52.220;5.134;2023-08-01T04:37:12;99994.47;;;16.27;100.00
60373;BME280;46216;52.220;5.134;2023-08-01T04:39:38;99991.63;;;16.28;100.00
60373;BME280;46216;52.220;5.134;2023-08-01T04:42:06;99993.97;;;16.31;100.00
60373;BME280;46216;52.220;5.134;2023-08-01T04:44:32;99992.81;;;16.34;100.00
60373;BME280;46216;52.220;5.134;2023-08-01T04:46:58;99995.16;;;16.37;100.00
60373;BME280;46216;52.220;5.134;2023-08-01T04:49:23;99995.81;;;16.39;100.00
60373;BME280;46216;52.220;5.134;2023-08-01T04:51:52;99996.50;;;16.41;100.00
60373;BME280;46216;52.220;5.134;2023-08-01T04:54:17;100007.91;;;16.43;100.00
60373;BME280;46216;52.220;5.134;2023-08-01T04:56:43;99993.63;;;16.43;100.00
60373;BME280;46216;52.220;5.134;2023-08-01T04:59:08;100002.38;;;16.45;100.00
60373;BME280;46216;52.220;5.134;2023-08-01T05:01:34;100007.56;;;16.46;100.00
60373;BME280;46216;52.220;5.134;2023-08-01T05:03:59;100009.25;;;16.47;100.00
60373;BME280;46216;52.220;5.134;2023-08-01T05:06:25;100007.22;;;16.49;100.00
60373;BME280;46216;52.220;5.134;2023-08-01T05:08:50;100011.75;;;16.49;100.00
60373;BME280;46216;52.220;5.134;2023-08-01T05:11:15;100009.25;;;16.47;100.00
60373;BME280;46216;52.220;5.134;2023-08-01T05:13:41;100008.25;;;16.48;100.00
60373;BME280;46216;52.220;5.134;2023-08-01T05:16:06;100009.59;;;16.44;100.00
60373;BME280;46216;52.220;5.134;2023-08-01T05:18:32;100007.41;;;16.48;100.00
60373;BME280;46216;52.220;5.134;2023-08-01T05:20:57;100010.75;;;16.50;100.00
60373;BME280;46216;52.220;5.134;2023-08-01T05:23:22;100018.47;;;16.53;100.00
60373;BME280;46216;52.220;5.134;2023-08-01T05:25:48;100007.56;;;16.54;100.00
60373;BME280;46216;52.220;5.134;2023-08-01T05:28:13;100014.63;;;16.55;100.00
60373;BME280;46216;52.220;5.134;2023-08-01T05:30:40;100012.06;;;16.54;100.00
60373;BME280;46216;52.220;5.134;2023-08-01T05:33:05;100011.94;;;16.55;100.00
60373;BME280;46216;52.220;5.134;2023-08-01T05:35:30;100013.44;;;16.58;100.00
60373;BME280;46216;52.220;5.134;2023-08-01T05:37:56;100006.03;;;16.60;100.00
60373;BME280;46216;52.220;5.134;2023-08-01T05:40:21;100013.44;;;16.58;100.00
60373;BME280;46216;52.220;5.134;2023-08-01T05:42:47;100018.00;;;16.58;100.00
60373;BME280;46216;52.220;5.134;2023-08-01T05:45:15;100015.28;;;16.58;100.00
60373;BME280;46216;52.220;5.134;2023-08-01T05:47:41;100015.94;;;16.60;100.00
60373;BME280;46216;52.220;5.134;2023-08-01T05:50:07;100017.81;;;16.59;100.00
60373;BME280;46216;52.220;5.134;2023-08-01T05:52:33;100016.28;;;16.56;100.00
60373;BME280;46216;52.220;5.134;2023-08-01T05:54:58;100024.34;;;16.56;100.00
60373;BME280;46216;52.220;5.134;2023-08-01T05:57:26;100031.09;;;16.52;100.00
60373;BME280;46216;52.220;5.134;2023-08-01T05:59:52;100024.69;;;16.53;100.00
60373;BME280;46216;52.220;5.134;2023-08-01T06:02:18;100031.94;;;16.53;100.00
60373;BME280;46216;52.220;5.134;2023-08-01T06:04:43;100034.63;;;16.53;100.00
60373;BME280;46216;52.220;5.134;2023-08-01T06:07:09;100030.41;;;16.50;100.00
60373;BME280;46216;52.220;5.134;2023-08-01T06:09:34;100037.50;;;16.51;100.00
60373;BME280;46216;52.220;5.134;2023-08-01T06:12:00;100042.69;;;16.53;100.00
60373;BME280;46216;52.220;5.134;2023-08-01T06:14:25;100038.47;;;16.50;100.00
60373;BME280;46216;52.220;5.134;2023-08-01T06:16:51;100048.91;;;16.53;100.00
60373;BME280;46216;52.220;5.134;2023-08-01T06:19:16;100043.53;;;16.53;100.00
60373;BME280;46216;52.220;5.134;2023-08-01T06:21:41;100043.53;;;16.53;100.00
60373;BME280;46216;52.220;5.134;2023-08-01T06:24:07;100042.34;;;16.56;100.00
60373;BME280;46216;52.220;5.134;2023-08-01T06:26:33;100049.56;;;16.64;100.00
60373;BME280;46216;52.220;5.134;2023-08-01T06:28:59;100056.31;;;16.68;100.00
60373;BME280;46216;52.220;5.134;2023-08-01T06:31:25;100057.63;;;16.72;100.00
60373;BME280;46216;52.220;5.134;2023-08-01T06:33:51;100066.06;;;16.77;100.00
60373;BME280;46216;52.220;5.134;2023-08-01T06:36:16;100058.31;;;16.82;100.00
60373;BME280;46216;52.220;5.134;2023-08-01T06:38:43;100054.78;;;16.90;100.00
60373;BME280;46216;52.220;5.134;2023-08-01T06:41:08;100059.28;;;16.97;100.00
60373;BME280;46216;52.220;5.134;2023-08-01T06:43:33;100052.03;;;16.98;100.00
60373;BME280;46216;52.220;5.134;2023-08-01T06:45:59;100056.25;;;17.00;100.00
60373;BME280;46216;52.220;5.134;2023-08-01T06:48:24;100059.44;;;17.04;100.00
60373;BME280;46216;52.220;5.134;2023-08-01T06:50:49;100059.09;;;17.07;100.00
60373;BME280;46216;52.220;5.134;2023-08-01T06:53:15;100047.16;;;17.10;100.00
60373;BME280;46216;52.220;5.134;2023-08-01T06:55:40;100055.22;;;17.10;100.00
60373;BME280;46216;52.220;5.134;2023-08-01T06:58:06;100050.50;;;17.12;100.00
60373;BME280;46216;52.220;5.134;2023-08-01T07:00:31;100050.47;;;17.20;100.00
60373;BME280;46216;52.220;5.134;2023-08-01T07:02:57;100049.47;;;17.21;100.00
60373;BME280;46216;52.220;5.134;2023-08-01T07:05:23;100056.50;;;17.22;100.00
60373;BME280;46216;52.220;5.134;2023-08-01T07:07:48;100056.34;;;17.23;100.00
60373;BME280;46216;52.220;5.134;2023-08-01T07:10:14;100045.09;;;17.20;100.00
60373;BME280;46216;52.220;5.134;2023-08-01T07:12:39;100041.91;;;17.16;100.00
60373;BME280;46216;52.220;5.134;2023-08-01T07:15:05;100054.53;;;17.16;100.00
60373;BME280;46216;52.220;5.134;2023-08-01T07:17:31;100061.09;;;17.13;100.00
60373;BME280;46216;52.220;5.134;2023-08-01T07:19:57;100066.50;;;17.13;100.00
60373;BME280;46216;52.220;5.134;2023-08-01T07:22:22;100062.63;;;17.08;100.00
60373;BME280;46216;52.220;5.134;2023-08-01T07:24:52;100074.06;;;17.01;100.00
60373;BME280;46216;52.220;5.134;2023-08-01T07:27:17;100072.09;;;16.87;100.00
60373;BME280;46216;52.220;5.134;2023-08-01T07:29:43;100054.75;;;16.73;100.00
60373;BME280;46216;52.220;5.134;2023-08-01T07:32:08;100072.94;;;16.63;100.00
60373;BME280;46216;52.220;5.134;2023-08-01T07:34:33;100068.41;;;16.55;100.00
60373;BME280;46216;52.220;5.134;2023-08-01T07:36:59;100075.97;;;16.52;100.00
60373;BME280;46216;52.220;5.134;2023-08-01T07:39:24;100074.47;;;16.49;100.00
60373;BME280;46216;52.220;5.134;2023-08-01T07:41:49;100069.59;;;16.53;100.00
60373;BME280;46216;52.220;5.134;2023-08-01T07:44:16;100059.00;;;16.60;100.00
60373;BME280;46216;52.220;5.134;2023-08-01T07:46:41;100074.47;;;16.66;100.00
60373;BME280;46216;52.220;5.134;2023-08-01T07:49:07;100067.75;;;16.78;100.00
60373;BME280;46216;52.220;5.134;2023-08-01T07:51:32;100075.81;;;16.86;100.00
60373;BME280;46216;52.220;5.134;2023-08-01T07:53:59;100085.22;;;16.90;100.00
60373;BME280;46216;52.220;5.134;2023-08-01T07:56:24;100089.94;;;16.88;100.00
60373;BME280;46216;52.220;5.134;2023-08-01T07:58:50;100091.59;;;16.81;100.00
60373;BME280;46216;52.220;5.134;2023-08-01T08:01:15;100092.97;;;16.77;100.00
60373;BME280;46216;52.220;5.134;2023-08-01T08:03:41;100093.44;;;16.72;100.00
60373;BME280;46216;52.220;5.134;2023-08-01T08:06:06;100097.31;;;16.70;100.00
60373;BME280;46216;52.220;5.134;2023-08-01T08:08:32;100098.34;;;16.69;100.00
60373;BME280;46216;52.220;5.134;2023-08-01T08:11:02;100101.84;;;16.69;100.00
60373;BME280;46216;52.220;5.134;2023-08-01T08:13:28;100102.69;;;16.70;100.00
60373;BME280;46216;52.220;5.134;2023-08-01T08:15:55;100093.97;;;16.68;100.00
60373;BME280;46216;52.220;5.134;2023-08-01T08:18:22;100104.56;;;16.69;100.00
60373;BME280;46216;52.220;5.134;2023-08-01T08:20:47;100112.63;;;16.69;100.00
60373;BME280;46216;52.220;5.134;2023-08-01T08:23:13;100100.69;;;16.72;100.00
60373;BME280;46216;52.220;5.134;2023-08-01T08:25:42;100097.19;;;16.79;100.00
60373;BME280;46216;52.220;5.134;2023-08-01T08:28:11;100098.34;;;16.85;100.00
60373;BME280;46216;52.220;5.134;2023-08-01T08:30:37;100101.84;;;16.94;100.00
60373;BME280;46216;52.220;5.134;2023-08-01T08:33:03;100096.47;;;17.02;100.00
60373;BME280;46216;52.220;5.134;2023-08-01T08:35:35;100092.72;;;17.11;100.00
60373;BME280;46216;52.220;5.134;2023-08-01T08:38:03;100088.53;;;17.17;100.00
60373;BME280;46216;52.220;5.134;2023-08-01T08:40:31;100116.78;;;17.21;100.00
60373;BME280;46216;52.220;5.134;2023-08-01T08:43:01;100097.28;;;17.19;100.00
60373;BME280;46216;52.220;5.134;2023-08-01T08:45:35;100100.97;;;17.18;100.00
60373;BME280;46216;52.220;5.134;2023-08-01T08:48:02;100094.22;;;17.22;100.00
60373;BME280;46216;52.220;5.134;2023-08-01T08:50:35;100102.13;;;17.23;100.00
60373;BME280;46216;52.220;5.134;2023-08-01T08:53:01;100108.16;;;17.34;100.00
60373;BME280;46216;52.220;5.134;2023-08-01T08:55:27;100101.41;;;17.38;100.00
60373;BME280;46216;52.220;5.134;2023-08-01T08:57:53;100114.88;;;17.46;100.00
60373;BME280;46216;52.220;5.134;2023-08-01T09:00:18;100107.91;;;17.52;100.00
60373;BME280;46216;52.220;5.134;2023-08-01T09:02:44;100117.66;;;17.61;100.00
60373;BME280;46216;52.220;5.134;2023-08-01T09:05:10;100112.91;;;17.63;100.00
60373;BME280;46216;52.220;5.134;2023-08-01T09:07:39;100113.09;;;17.61;100.00
60373;BME280;46216;52.220;5.134;2023-08-01T09:10:05;100110.41;;;17.61;100.00
60373;BME280;46216;52.220;5.134;2023-08-01T09:12:34;100113.09;;;17.61;100.00
60373;BME280;46216;52.220;5.134;2023-08-01T09:15:00;100111.91;;;17.64;100.00
60373;BME280;46216;52.220;5.134;2023-08-01T09:17:25;100109.38;;;17.62;100.00
60373;BME280;46216;52.220;5.134;2023-08-01T09:19:56;100123.69;;;17.63;100.00
60373;BME280;46216;52.220;5.134;2023-08-01T09:22:28;100110.00;;;17.72;100.00
60373;BME280;46216;52.220;5.134;2023-08-01T09:24:53;100117.63;;;17.77;100.00
60373;BME280;46216;52.220;5.134;2023-08-01T09:27:20;100106.50;;;17.80;100.00
60373;BME280;46216;52.220;5.134;2023-08-01T09:29:46;100116.94;;;17.83;100.00
60373;BME280;46216;52.220;5.134;2023-08-01T09:32:15;100129.38;;;17.84;100.00
60373;BME280;46216;52.220;5.134;2023-08-01T09:34:41;100126.50;;;17.86;100.00
60373;BME280;46216;52.220;5.134;2023-08-01T09:37:07;100126.97;;;17.89;100.00
60373;BME280;46216;52.220;5.134;2023-08-01T09:39:33;100120.88;;;17.95;100.00
60373;BME280;46216;52.220;5.134;2023-08-01T09:41:59;100128.75;;;18.05;100.00
60373;BME280;46216;52.220;5.134;2023-08-01T09:44:26;100133.31;;;18.05;100.00
60373;BME280;46216;52.220;5.134;2023-08-01T09:47:00;100129.16;;;17.94;100.00
60373;BME280;46216;52.220;5.134;2023-08-01T09:49:27;100135.94;;;17.82;100.00
60373;BME280;46216;52.220;5.134;2023-08-01T09:51:53;100136.31;;;17.79;100.00
60373;BME280;46216;52.220;5.134;2023-08-01T09:54:20;100139.00;;;17.79;100.00
60373;BME280;46216;52.220;5.134;2023-08-01T09:56:48;100149.97;;;17.77;100.00
60373;BME280;46216;52.220;5.134;2023-08-01T09:59:19;100142.00;;;17.76;100.00
60373;BME280;46216;52.220;5.134;2023-08-01T10:01:47;100137.47;;;17.84;100.00
60373;BME280;46216;52.220;5.134;2023-08-01T10:04:14;100138.91;;;17.95;100.00
60373;BME280;46216;52.220;5.134;2023-08-01T10:06:43;100145.47;;;18.01;100.00
60373;BME280;46216;52.220;5.134;2023-08-01T10:09:11;100142.94;;;17.99;100.00
60373;BME280;46216;52.220;5.134;2023-08-01T10:11:38;100143.50;;;17.86;100.00
60373;BME280;46216;52.220;5.134;2023-08-01T10:14:06;100139.66;;;17.81;100.00
60373;BME280;46216;52.220;5.134;2023-08-01T10:16:32;100148.06;;;17.86;100.00
60373;BME280;46216;52.220;5.134;2023-08-01T10:18:59;100150.00;;;18.00;100.00
60373;BME280;46216;52.220;5.134;2023-08-01T10:21:25;100147.09;;;18.10;100.00
60373;BME280;46216;52.220;5.134;2023-08-01T10:23:54;100152.81;;;18.15;100.00
60373;BME280;46216;52.220;5.134;2023-08-01T10:26:20;100152.75;;;18.23;100.00
60373;BME280;46216;52.220;5.134;2023-08-01T10:28:52;100146.97;;;18.34;100.00
60373;BME280;46216;52.220;5.134;2023-08-01T10:31:19;100154.63;;;18.46;100.00
60373;BME280;46216;52.220;5.134;2023-08-01T10:33:47;100146.19;;;18.49;100.00
60373;BME280;46216;52.220;5.134;2023-08-01T10:38:53;100152.03;;;18.52;100.00
60373;BME280;46216;52.220;5.134;2023-08-01T10:43:44;100155.09;;;18.49;100.00
60373;BME280;46216;52.220;5.134;2023-08-01T10:46:10;100159.94;;;18.54;100.00
60373;BME280;46216;52.220;5.134;2023-08-01T10:48:47;100161.34;;;18.50;100.00
60373;BME280;46216;52.220;5.134;2023-08-01T10:51:13;100159.19;;;18.45;100.00
60373;BME280;46216;52.220;5.134;2023-08-01T10:53:39;100167.22;;;18.53;100.00
60373;BME280;46216;52.220;5.134;2023-08-01T10:56:04;100180.81;;;18.60;100.00
60373;BME280;46216;52.220;5.134;2023-08-01T10:58:30;100171.06;;;18.59;100.00
60373;BME280;46216;52.220;5.134;2023-08-01T11:01:00;100164.28;;;18.63;100.00
60373;BME280;46216;52.220;5.134;2023-08-01T11:03:38;100169.28;;;18.74;100.00
60373;BME280;46216;52.220;5.134;2023-08-01T11:06:04;100170.78;;;18.77;100.00
60373;BME280;46216;52.220;5.134;2023-08-01T11:08:39;100176.75;;;18.64;100.00
60373;BME280;46216;52.220;5.134;2023-08-01T11:11:08;100177.78;;;18.63;100.00
60373;BME280;46216;52.220;5.134;2023-08-01T11:13:36;100178.03;;;18.76;100.00
60373;BME280;46216;52.220;5.134;2023-08-01T11:16:03;100190.69;;;18.99;100.00
60373;BME280;46216;52.220;5.134;2023-08-01T11:18:30;100181.78;;;19.13;100.00
60373;BME280;46216;52.220;5.134;2023-08-01T11:20:56;100182.63;;;19.28;100.00
60373;BME280;46216;52.220;5.134;2023-08-01T11:23:28;100180.69;;;19.37;100.00
60373;BME280;46216;52.220;5.134;2023-08-01T11:25:54;100177.53;;;19.33;100.00
60373;BME280;46216;52.220;5.134;2023-08-01T11:28:20;100191.09;;;19.25;100.00
60373;BME280;46216;52.220;5.134;2023-08-01T11:30:48;100178.72;;;19.16;100.00
60373;BME280;46216;52.220;5.134;2023-08-01T11:35:43;100189.28;;;19.03;100.00
60373;BME280;46216;52.220;5.134;2023-08-01T11:38:09;100185.19;;;18.92;100.00
60373;BME280;46216;52.220;5.134;2023-08-01T11:40:34;100186.06;;;18.84;100.00
60373;BME280;46216;52.220;5.134;2023-08-01T11:43:00;100189.13;;;18.81;100.00
60373;BME280;46216;52.220;5.134;2023-08-01T11:45:25;100179.06;;;18.75;100.00
60373;BME280;46216;52.220;5.134;2023-08-01T11:47:51;100187.28;;;18.82;100.00
60373;BME280;46216;52.220;5.134;2023-08-01T11:50:21;100181.97;;;18.88;100.00
60373;BME280;46216;52.220;5.134;2023-08-01T11:52:48;100187.53;;;19.10;100.00
60373;BME280;46216;52.220;5.134;2023-08-01T11:55:21;100176.22;;;19.29;100.00
60373;BME280;46216;52.220;5.134;2023-08-01T11:57:54;100193.16;;;19.38;100.00
60373;BME280;46216;52.220;5.134;2023-08-01T12:00:27;100206.88;;;19.36;100.00
60373;BME280;46216;52.220;5.134;2023-08-01T12:03:07;100187.50;;;19.48;100.00
60373;BME280;46216;52.220;5.134;2023-08-01T12:05:37;100186.09;;;19.52;100.00
60373;BME280;46216;52.220;5.134;2023-08-01T12:08:12;100194.56;;;19.49;100.00
60373;BME280;46216;52.220;5.134;2023-08-01T12:10:45;100190.09;;;19.56;100.00
60373;BME280;46216;52.220;5.134;2023-08-01T12:13:21;100201.13;;;19.69;100.00
60373;BME280;46216;52.220;5.134;2023-08-01T12:15:48;100206.75;;;19.68;100.00
60373;BME280;46216;52.220;5.134;2023-08-01T12:18:21;100205.44;;;19.78;100.00
60373;BME280;46216;52.220;5.134;2023-08-01T12:20:48;100201.50;;;19.96;100.00
60373;BME280;46216;52.220;5.134;2023-08-01T12:23:19;100206.41;;;20.07;100.00
60373;BME280;46216;52.220;5.134;2023-08-01T12:25:46;100209.03;;;20.15;100.00
60373;BME280;46216;52.220;5.134;2023-08-01T12:28:13;100198.47;;;20.20;100.00
60373;BME280;46216;52.220;5.134;2023-08-01T12:30:40;100198.16;;;20.30;100.00
60373;BME280;46216;52.220;5.134;2023-08-01T12:33:12;100205.44;;;20.29;100.00
60373;BME280;46216;52.220;5.134;2023-08-01T12:35:46;100201.72;;;20.30;100.00
60373;BME280;46216;52.220;5.134;2023-08-01T12:38:11;100211.16;;;20.35;100.00
60373;BME280;46216;52.220;5.134;2023-08-01T12:40:37;100202.38;;;20.32;100.00
60373;BME280;46216;52.220;5.134;2023-08-01T12:43:02;100210.66;;;20.31;100.00